Time;durP1;ratioP1;P1;durP2;ratioP2;P2;SDS_P1;SDS_P2;PMS_P1;PMS_P2;Temp;Humidity;BMP_temperature;BMP_pressure;BME280_temperature;BME280_humidity;BME280_pressure;Samples;Min_cycle;Max_cycle;Signal;HPM_P1;HPM_P2
2022/01/18 00:03:26;;;;;;;1999.90;999.90;;;;;;;2.98;70.90;102742.41;15657792;28;20447;-65
2022/01/18 00:11:01;;;;;;;1999.90;999.90;;;;;;;2.80;71.73;102748.78;15667944;28;20417;-65
2022/01/18 00:18:34;;;;;;;1999.90;999.90;;;;;;;2.54;73.44;102752.72;15684534;28;20048;-65
2022/01/18 00:26:10;;;;;;;1999.90;999.90;;;;;;;2.90;73.07;102757.34;15667510;28;20053;-65
2022/01/18 00:33:53;;;;;;;1999.90;999.90;;;;;;;2.79;73.25;102769.16;15660276;28;20453;-65
2022/01/18 00:41:27;;;;;;;1999.90;999.90;;;;;;;2.83;73.72;102767.66;15611901;28;20045;-65
2022/01/18 00:49:01;;;;;;;1999.90;999.90;;;;;;;2.91;73.00;102771.97;15667090;28;20423;-64
2022/01/18 00:56:39;;;;;;;1999.90;999.90;;;;;;;3.02;73.17;102793.28;15663755;28;20501;-64
2022/01/18 01:04:12;;;;;;;1999.90;999.90;;;;;;;2.80;73.31;102789.31;15650472;28;20160;-65
2022/01/18 01:11:47;;;;;;;1999.90;999.90;;;;;;;2.77;73.64;102787.84;15603757;28;20108;-64
2022/01/18 01:19:32;;;;;;;1999.90;999.90;;;;;;;2.91;73.68;102785.78;15620694;28;20049;-64
2022/01/18 01:35:05;;;;;;;1999.90;999.90;;;;;;;2.77;74.14;102807.16;15621176;28;20497;-63
2022/01/18 01:42:57;;;;;;;1999.90;999.90;;;;;;;2.85;73.99;102822.56;15681006;28;20051;-65
2022/01/18 01:50:42;;;;;;;1999.90;999.90;;;;;;;2.61;74.40;102810.53;15679309;28;20124;-64
2022/01/18 01:58:17;;;;;;;1999.90;999.90;;;;;;;2.73;73.73;102824.41;15657402;28;20056;-65
2022/01/18 02:05:50;;;;;;;1999.90;999.90;;;;;;;2.77;73.28;102809.91;15652769;28;20413;-65
2022/01/18 02:13:24;;;;;;;1999.90;999.90;;;;;;;2.74;73.19;102810.38;15655639;28;20484;-65
2022/01/18 02:28:48;;;;;;;1999.90;999.90;;;;;;;2.53;73.00;102803.41;15617456;28;20056;-64
2022/01/18 02:36:22;;;;;;;1999.90;999.90;;;;;;;2.34;73.62;102806.38;15633238;28;20080;-65
2022/01/18 02:43:57;;;;;;;1999.90;999.90;;;;;;;2.37;73.57;102816.94;15678432;28;20056;-64
2022/01/18 02:51:31;;;;;;;1999.90;999.90;;;;;;;2.46;73.03;102821.09;15688142;28;20468;-65
2022/01/18 02:59:18;;;;;;;1999.90;999.90;;;;;;;2.41;73.22;102804.41;15688916;28;20064;-66
2022/01/18 03:06:52;;;;;;;1999.90;999.90;;;;;;;2.35;73.69;102814.41;15671044;28;20073;-63
2022/01/18 03:14:25;;;;;;;1999.90;999.90;;;;;;;2.25;74.41;102819.59;15640171;28;20128;-66
2022/01/18 03:21:59;;;;;;;1999.90;999.90;;;;;;;2.31;74.44;102838.81;15625632;28;20522;-66
2022/01/18 03:29:32;;;;;;;1999.90;999.90;;;;;;;2.28;74.26;102835.66;15625500;28;20362;-65
2022/01/18 03:37:06;;;;;;;1999.90;999.90;;;;;;;2.26;74.57;102855.19;15624720;28;20403;-65
2022/01/18 03:44:39;;;;;;;1999.90;999.90;;;;;;;2.38;74.07;102852.53;15624448;28;20421;-65
2022/01/18 03:52:13;;;;;;;1999.90;999.90;;;;;;;2.20;74.72;102850.59;15606283;28;20034;-65
2022/01/18 03:59:46;;;;;;;1999.90;999.90;;;;;;;2.27;74.62;102854.09;15664301;28;20045;-65
2022/01/18 04:07:20;;;;;;;1999.90;999.90;;;;;;;2.37;74.76;102861.88;15686426;28;20045;-64
2022/01/18 04:14:54;;;;;;;1999.90;999.90;;;;;;;2.63;74.78;102860.78;15616831;28;20049;-63
2022/01/18 04:30:33;;;;;;;1999.90;999.90;;;;;;;2.84;74.15;102884.31;15417540;28;20060;-65
2022/01/18 04:38:08;;;;;;;1999.90;999.90;;;;;;;3.08;74.21;102885.31;15605972;28;20073;-65
2022/01/18 04:53:32;;;;;;;1999.90;999.90;;;;;;;3.22;73.90;102897.84;15621083;28;20133;-65
2022/01/18 05:01:08;;;;;;;1999.90;999.90;;;;;;;3.14;73.46;102890.75;15602779;28;20048;-65
2022/01/18 05:08:42;;;;;;;1999.90;999.90;;;;;;;3.23;73.68;102896.81;15605425;28;20095;-66
2022/01/18 05:16:43;;;;;;;1999.90;999.90;;;;;;;3.11;73.42;102905.00;15679026;28;20045;-65
2022/01/18 05:24:17;;;;;;;1999.90;999.90;;;;;;;3.23;72.93;102907.84;15679952;28;20041;-66
2022/01/18 05:31:50;;;;;;;1999.90;999.90;;;;;;;3.08;72.65;102910.13;15662489;28;20057;-65
2022/01/18 05:39:24;;;;;;;1999.90;999.90;;;;;;;3.14;72.95;102909.22;15679170;28;20506;-65
2022/01/18 05:47:15;;;;;;;1999.90;999.90;;;;;;;2.94;72.85;102923.25;15677686;28;20103;-66
2022/01/18 05:54:49;;;;;;;1999.90;999.90;;;;;;;2.94;72.62;102919.63;15677432;28;20049;-64
2022/01/18 06:02:35;;;;;;;1999.90;999.90;;;;;;;2.90;72.35;102941.28;15678496;28;20102;-65
2022/01/18 06:11:08;;;;;;;1999.90;999.90;;;;;;;3.13;72.36;102937.91;15678639;28;20581;-66
2022/01/18 06:19:09;;;;;;;1999.90;999.90;;;;;;;3.10;73.19;102930.06;15677057;28;20114;-66
2022/01/18 06:26:42;;;;;;;1999.90;999.90;;;;;;;3.42;72.92;102950.06;15690793;28;20112;-65
2022/01/18 06:34:17;;;;;;;1999.90;999.90;;;;;;;3.55;72.90;102958.19;15692076;28;20131;-65
2022/01/18 06:41:50;;;;;;;1999.90;999.90;;;;;;;3.70;72.60;102972.44;15673411;28;20076;-65
2022/01/18 06:49:24;;;;;;;1999.90;999.90;;;;;;;3.79;72.45;102963.84;15690256;28;20040;-65
2022/01/18 06:57:00;;;;;;;1999.90;999.90;;;;;;;3.87;73.18;102972.66;15673768;28;20311;-65
2022/01/18 07:04:34;;;;;;;1999.90;999.90;;;;;;;4.03;72.67;102979.41;15671511;28;20127;-64
2022/01/18 07:12:10;;;;;;;1999.90;999.90;;;;;;;4.12;72.62;102997.34;15658709;28;20057;-65
2022/01/18 07:19:45;;;;;;;1999.90;999.90;;;;;;;4.38;72.43;103001.66;15608746;28;20042;-65
2022/01/18 07:27:18;;;;;;;1999.90;999.90;;;;;;;4.46;72.40;103008.75;15626431;28;20061;-66
2022/01/18 07:34:53;;;;;;;1999.90;999.90;;;;;;;4.58;73.03;103021.53;15624689;28;20045;-65
2022/01/18 07:42:26;;;;;;;1999.90;999.90;;;;;;;4.77;71.43;103024.22;15607214;28;20401;-65
2022/01/18 07:50:00;;;;;;;1999.90;999.90;;;;;;;4.80;71.97;103040.38;15625005;28;20520;-64
2022/01/18 07:57:33;;;;;;;1999.90;999.90;;;;;;;4.93;71.81;103048.44;15625302;28;20062;-65
2022/01/18 08:05:10;;;;;;;1999.90;999.90;;;;;;;5.30;70.74;103054.56;15623818;28;20091;-64
2022/01/18 08:12:43;;;;;;;1999.90;999.90;;;;;;;5.32;70.59;103080.13;15637975;28;20044;-62
2022/01/18 08:20:18;;;;;;;1999.90;999.90;;;;;;;5.51;69.95;103080.81;15657177;28;20110;-59
2022/01/18 08:27:51;;;;;;;1999.90;999.90;;;;;;;5.66;69.89;103081.19;15668547;28;20432;-60
2022/01/18 08:35:26;;;;;;;1999.90;999.90;;;;;;;5.97;69.18;103087.44;15663844;28;20398;-61
2022/01/18 08:42:59;;;;;;;1999.90;999.90;;;;;;;6.09;69.46;103093.78;15679509;28;20045;-62
2022/01/18 08:50:34;;;;;;;1999.90;999.90;;;;;;;6.32;67.83;103102.03;15681522;28;20541;-61
2022/01/18 08:58:08;;;;;;;1999.90;999.90;;;;;;;6.16;67.86;103100.03;15679328;28;20063;-63
2022/01/18 09:05:44;;;;;;;1999.90;999.90;;;;;;;6.49;67.99;103104.84;15665828;28;20108;-65
2022/01/18 09:13:17;;;;;;;1999.90;999.90;;;;;;;6.66;67.23;103122.38;15641860;28;20069;-65
2022/01/18 09:20:51;;;;;;;1999.90;999.90;;;;;;;6.93;67.10;103128.16;15646678;28;20048;-64
2022/01/18 09:28:24;;;;;;;1999.90;999.90;;;;;;;7.01;66.38;103137.19;15650388;28;20051;-65
2022/01/18 09:35:59;;;;;;;1999.90;999.90;;;;;;;7.42;65.46;103134.00;15620632;22;20119;-75
2022/01/18 09:43:34;;;;;;;1999.90;999.90;;;;;;;7.61;64.69;103137.34;15591047;28;20178;-74
2022/01/18 09:51:09;;;;;;;1999.90;999.90;;;;;;;7.62;65.36;103150.16;15616219;28;20056;-74
2022/01/18 09:58:42;;;;;;;1999.90;999.90;;;;;;;8.48;61.44;103133.00;15567170;28;20056;-75
2022/01/18 10:06:19;;;;;;;1999.90;999.90;;;;;;;8.66;61.30;103139.06;15554558;28;20056;-74
2022/01/18 10:13:52;;;;;;;1999.90;999.90;;;;;;;9.54;58.75;103147.09;15558036;28;20061;-73
2022/01/18 10:21:29;;;;;;;1999.90;999.90;;;;;;;9.55;58.37;103157.16;15568087;28;20065;-73
2022/01/18 10:29:05;;;;;;;1999.90;999.90;;;;;;;8.86;60.45;103162.66;15557555;28;20634;-74
2022/01/18 10:36:52;;;;;;;1999.90;999.90;;;;;;;9.50;58.99;103155.16;15565275;28;20042;-73
2022/01/18 10:44:25;;;;;;;1999.90;999.90;;;;;;;10.23;56.71;103146.19;15559815;28;20176;-75
2022/01/18 10:52:04;;;;;;;1999.90;999.90;;;;;;;9.58;58.24;103145.44;15562708;28;20077;-75
2022/01/18 10:59:38;;;;;;;1999.90;999.90;;;;;;;9.75;57.21;103126.63;15564056;28;20716;-74
2022/01/18 11:07:13;;;;;;;1999.90;999.90;;;;;;;9.52;58.64;103130.66;15555009;28;20163;-73
2022/01/18 11:14:49;;;;;;;1999.90;999.90;;;;;;;9.99;57.87;103140.97;15573144;28;20050;-73
2022/01/18 11:22:26;;;;;;;1999.90;999.90;;;;;;;9.59;57.91;103143.50;15580092;28;20153;-74
2022/01/18 11:29:59;;;;;;;1999.90;999.90;;;;;;;9.26;58.93;103135.16;15568412;28;20049;-73
2022/01/18 11:37:39;;;;;;;;;;;;;;;9.29;58.78;103128.25;15572735;28;20128;-73
2022/01/18 11:45:31;;;;;;;1999.90;999.90;;;;;;;9.16;58.46;103137.88;15568055;28;20334;-73
2022/01/18 11:53:41;;;;;;;1999.90;999.90;;;;;;;9.51;59.07;103144.84;15576909;28;20559;-73
2022/01/18 12:01:16;;;;;;;1999.90;999.90;;;;;;;9.22;58.27;103150.75;15561672;28;20046;-73
2022/01/18 12:08:50;;;;;;;1999.90;999.90;;;;;;;9.08;58.90;103152.28;15562948;28;20072;-75
2022/01/18 12:16:29;;;;;;;1999.90;999.90;;;;;;;8.73;60.03;103163.88;15556821;28;20042;-74
2022/01/18 12:24:31;;;;;;;1999.90;999.90;;;;;;;8.79;60.72;103150.88;15568488;28;20042;-73
2022/01/18 12:32:26;;;;;;;1999.90;999.90;;;;;;;9.31;59.20;103133.53;15502314;28;20797;-70
2022/01/18 12:40:07;;;;;;;1999.90;999.90;;;;;;;9.28;59.61;103125.72;15615532;28;20088;-72
2022/01/18 12:47:45;;;;;;;1999.90;999.90;;;;;;;9.14;59.76;103128.09;15572450;28;20144;-72
2022/01/18 12:55:28;;;;;;;1999.90;999.90;;;;;;;9.09;59.94;103133.63;15551897;28;20041;-71
2022/01/18 13:03:00;;;;;;;1999.90;999.90;;;;;;;9.29;60.34;103117.09;15556012;28;20130;-75
2022/01/18 13:10:41;;;;;;;1999.90;999.90;;;;;;;8.97;60.42;103131.03;15553010;28;20050;-73
2022/01/18 13:26:11;;;;;;;1999.90;999.90;;;;;;;9.09;60.22;103112.19;15567827;28;20568;-73
2022/01/18 13:33:51;;;;;;;1999.90;999.90;;;;;;;8.83;61.29;103119.44;15554539;28;20457;-75
2022/01/18 13:41:25;;;;;;;1999.90;999.90;;;;;;;8.72;61.36;103112.09;15552710;28;20059;-73
2022/01/18 13:49:05;;;;;;;1999.90;999.90;;;;;;;8.73;62.48;103104.59;15592636;28;20061;-74
2022/01/18 13:56:48;;;;;;;1999.90;999.90;;;;;;;8.95;61.60;103116.50;15573834;28;20064;-75
2022/01/18 14:04:24;;;;;;;1999.90;999.90;;;;;;;8.88;62.19;103129.81;15587992;28;20045;-75
2022/01/18 14:11:59;;;;;;;1999.90;999.90;;;;;;;8.75;62.22;103119.91;15573383;28;20046;-74
2022/01/18 14:19:34;;;;;;;1999.90;999.90;;;;;;;8.67;62.88;103109.28;15551813;28;20469;-73
2022/01/18 14:27:11;;;;;;;1999.90;999.90;;;;;;;8.56;63.55;103113.06;15548851;28;20057;-76
2022/01/18 14:34:48;;;;;;;1999.90;999.90;;;;;;;8.73;63.33;103124.91;15587522;28;20111;-75
2022/01/18 14:42:24;;;;;;;1999.90;999.90;;;;;;;8.70;63.28;103113.47;15579823;28;20112;-75
2022/01/18 14:49:59;;;;;;;1999.90;999.90;;;;;;;8.77;63.26;103109.38;15609597;28;20046;-75
2022/01/18 14:57:33;;;;;;;1999.90;999.90;;;;;;;8.89;63.06;103123.13;15603860;28;20461;-75
2022/01/18 15:05:07;;;;;;;1999.90;999.90;;;;;;;8.79;63.53;103125.81;15584575;28;20103;-73
2022/01/18 15:12:46;;;;;;;1999.90;999.90;;;;;;;8.72;63.98;103123.22;15570613;28;20053;-72
2022/01/18 15:20:21;;;;;;;1999.90;999.90;;;;;;;8.77;63.90;103126.09;15594490;28;20057;-74
2022/01/18 15:27:56;;;;;;;1999.90;999.90;;;;;;;8.72;64.05;103122.41;15603316;28;20100;-73
2022/01/18 15:35:31;;;;;;;1999.90;999.90;;;;;;;8.58;64.53;103114.47;15608837;23;20054;-66
2022/01/18 15:43:05;;;;;;;1999.90;999.90;;;;;;;8.48;65.13;103114.34;15566677;28;20069;-65
2022/01/18 15:50:38;;;;;;;1999.90;999.90;;;;;;;8.62;64.67;103115.63;15581224;28;20041;-67
2022/01/18 15:58:15;;;;;;;1999.90;999.90;;;;;;;8.60;64.97;103123.38;15599337;28;20536;-66
2022/01/18 16:05:52;;;;;;;1999.90;999.90;;;;;;;8.53;64.99;103119.13;15556269;28;20046;-67
2022/01/18 16:13:26;;;;;;;1999.90;999.90;;;;;;;8.51;65.64;103111.03;15555314;28;20050;-63
2022/01/18 16:20:58;;;;;;;1999.90;999.90;;;;;;;8.43;65.66;103113.44;15556763;28;20082;-67
2022/01/18 16:28:33;;;;;;;1999.90;999.90;;;;;;;8.59;65.58;103105.00;15557634;28;20058;-67
2022/01/18 16:36:06;;;;;;;1999.90;999.90;;;;;;;8.34;66.37;103108.34;15518633;28;1067635;-66
2022/01/18 16:43:40;;;;;;;1999.90;999.90;;;;;;;8.32;66.64;103098.53;15559248;28;20045;-67
2022/01/18 16:51:12;;;;;;;1999.90;999.90;;;;;;;8.27;66.68;103101.28;15557450;28;20042;-67
2022/01/18 16:58:50;;;;;;;1999.90;999.90;;;;;;;8.26;66.94;103092.09;15558828;28;20479;-66
2022/01/18 17:06:23;;;;;;;1999.90;999.90;;;;;;;8.16;67.17;103099.47;15542765;28;20049;-67
2022/01/18 17:13:58;;;;;;;1999.90;999.90;;;;;;;7.91;68.60;103094.41;15555411;28;20042;-69
2022/01/18 17:21:31;;;;;;;1999.90;999.90;;;;;;;7.69;69.82;103091.59;15556415;28;20056;-66
2022/01/18 17:29:06;;;;;;;1999.90;999.90;;;;;;;7.98;69.25;103095.06;15549112;28;20042;-67
2022/01/18 17:36:38;;;;;;;1999.90;999.90;;;;;;;8.06;69.00;103094.63;15538211;28;20105;-67
2022/01/18 17:44:13;;;;;;;1999.90;999.90;;;;;;;7.75;70.06;103094.19;15496459;28;20561;-63
2022/01/18 17:51:46;;;;;;;1999.90;999.90;;;;;;;7.74;70.34;103092.53;15496445;28;20305;-65
2022/01/18 17:59:20;;;;;;;1999.90;999.90;;;;;;;7.81;70.41;103067.28;15496387;28;20053;-66
2022/01/18 18:06:53;;;;;;;1999.90;999.90;;;;;;;7.70;70.89;103068.25;15521345;28;20041;-65
2022/01/18 18:14:28;;;;;;;1999.90;999.90;;;;;;;7.67;71.27;103064.06;15553020;28;20086;-66
2022/01/18 18:22:01;;;;;;;1999.90;999.90;;;;;;;7.87;71.01;103068.22;15554112;28;20049;-65
2022/01/18 18:29:36;;;;;;;1999.90;999.90;;;;;;;7.90;70.84;103056.56;15552982;28;20050;-65
2022/01/18 18:37:09;;;;;;;1999.90;999.90;;;;;;;7.85;70.98;103040.69;15552476;28;20096;-66
2022/01/18 18:44:43;;;;;;;1999.90;999.90;;;;;;;8.01;70.84;103023.06;15556935;28;20057;-65
2022/01/18 18:52:16;;;;;;;1999.90;999.90;;;;;;;8.03;70.75;103045.91;15570088;28;20398;-67
2022/01/18 19:00:17;;;;;;;1999.90;999.90;;;;;;;8.04;70.67;103049.53;15592608;28;20065;-64
2022/01/18 19:07:50;;;;;;;1999.90;999.90;;;;;;;8.24;70.13;103068.41;15599869;28;20980;-65
2022/01/18 19:15:25;;;;;;;1999.90;999.90;;;;;;;8.33;70.33;103067.66;15613947;28;20037;-67
2022/01/18 19:22:59;;;;;;;1999.90;999.90;;;;;;;8.16;70.67;103058.59;15577499;28;20062;-66
2022/01/18 19:30:33;;;;;;;1999.90;999.90;;;;;;;8.20;70.71;103068.06;15551289;28;20479;-68
2022/01/18 19:38:06;;;;;;;1999.90;999.90;;;;;;;8.23;70.73;103063.94;15579635;28;20048;-68
2022/01/18 19:45:42;;;;;;;1999.90;999.90;;;;;;;8.39;70.47;103058.31;15574160;28;20034;-66
2022/01/18 19:53:16;;;;;;;1999.90;999.90;;;;;;;8.33;70.57;103045.41;15578766;28;20046;-67
2022/01/18 20:00:52;;;;;;;;;;;;;;;8.54;69.90;103040.09;15566336;28;20316;-67
2022/01/18 20:08:30;;;;;;;1999.90;999.90;;;;;;;8.15;71.08;103036.59;15571127;28;19921;-67
2022/01/18 20:16:05;;;;;;;1999.90;999.90;;;;;;;8.26;71.19;103027.25;15567089;28;20050;-66
2022/01/18 20:23:38;;;;;;;1999.90;999.90;;;;;;;8.31;70.75;103035.66;15567118;28;20520;-66
2022/01/18 20:31:18;;;;;;;1999.90;999.90;;;;;;;8.38;70.61;103036.31;15575834;28;20051;-66
2022/01/18 20:38:51;;;;;;;1999.90;999.90;;;;;;;8.35;69.91;103018.22;15553851;28;20045;-67
2022/01/18 20:46:25;;;;;;;1999.90;999.90;;;;;;;8.39;70.50;102977.63;15558211;28;20045;-66
2022/01/18 20:54:01;;;;;;;1999.90;999.90;;;;;;;8.44;70.49;102970.41;15574380;28;20048;-68
2022/01/18 21:01:35;;;;;;;1999.90;999.90;;;;;;;8.41;70.46;102979.31;15579190;28;20065;-67
2022/01/18 21:09:10;;;;;;;1999.90;999.90;;;;;;;8.42;70.25;102973.47;15607142;28;20049;-64
2022/01/18 21:16:44;;;;;;;1999.90;999.90;;;;;;;8.52;70.13;102970.78;15576629;28;20506;-64
2022/01/18 21:24:17;;;;;;;1999.90;999.90;;;;;;;8.45;70.50;102961.00;15590758;28;20449;-67
2022/01/18 21:31:50;;;;;;;1999.90;999.90;;;;;;;8.35;70.85;102973.72;15609231;28;20491;-68
2022/01/18 21:39:24;;;;;;;1999.90;999.90;;;;;;;8.22;71.40;102962.94;15610717;28;20068;-66
2022/01/18 21:46:59;;;;;;;1999.90;999.90;;;;;;;8.24;71.04;102946.84;15620434;28;20045;-64
2022/01/18 21:54:31;;;;;;;1999.90;999.90;;;;;;;8.22;71.23;102957.38;15617928;28;20335;-64
2022/01/18 22:02:05;;;;;;;1999.90;999.90;;;;;;;8.22;71.01;102946.25;15616896;28;20310;-67
2022/01/18 22:09:38;;;;;;;1999.90;999.90;;;;;;;8.00;71.51;102937.13;15616703;28;20072;-63
2022/01/18 22:17:12;;;;;;;1999.90;999.90;;;;;;;8.23;71.07;102928.50;15615747;28;20048;-65
2022/01/18 22:24:44;;;;;;;1999.90;999.90;;;;;;;7.99;71.31;102913.22;15552035;28;20484;-64
2022/01/18 22:32:19;;;;;;;1999.90;999.90;;;;;;;8.22;70.24;102900.91;15503879;28;20038;-65
2022/01/18 22:39:52;;;;;;;1999.90;999.90;;;;;;;8.07;70.81;102894.13;15492331;28;20054;-65
2022/01/18 22:47:26;;;;;;;1999.90;999.90;;;;;;;7.97;71.11;102888.47;15500224;28;20068;-64
2022/01/18 22:55:00;;;;;;;1999.90;999.90;;;;;;;8.01;70.96;102888.75;15561390;28;20462;-65
2022/01/18 23:02:35;;;;;;;1999.90;999.90;;;;;;;8.00;71.26;102887.91;15574060;28;20104;-66
2022/01/18 23:10:08;;;;;;;1999.90;999.90;;;;;;;8.28;70.51;102884.03;15625988;28;20541;-66
2022/01/18 23:17:42;;;;;;;1999.90;999.90;;;;;;;7.84;71.31;102883.34;15573745;28;20053;-66
2022/01/18 23:25:15;;;;;;;1999.90;999.90;;;;;;;8.22;69.54;102873.09;15564283;28;20046;-65
2022/01/18 23:32:50;;;;;;;1999.90;999.90;;;;;;;7.85;70.24;102873.88;15598972;28;20552;-65
2022/01/18 23:48:14;;;;;;;1999.90;999.90;;;;;;;7.51;70.12;102867.69;15624978;28;20057;-66
2022/01/18 23:55:47;;;;;;;1999.90;999.90;;;;;;;7.60;69.72;102851.38;15621347;28;20391;-65
